sensor_id;sensor_type;location;lat;lon;timestamp;pressure;altitude;pressure_sealevel;temperature;humidity
30598;BME280;17365;48.878;8.334;2022-10-26T00:01:03;100015.69;;;14.06;100.00
30598;BME280;17365;48.878;8.334;2022-10-26T00:03:29;100011.44;;;13.98;100.00
30598;BME280;17365;48.878;8.334;2022-10-26T00:06:01;100016.59;;;14.02;100.00
30598;BME280;17365;48.878;8.334;2022-10-26T00:08:27;100014.94;;;13.97;100.00
30598;BME280;17365;48.878;8.334;2022-10-26T00:10:56;100007.00;;;14.04;100.00
30598;BME280;17365;48.878;8.334;2022-10-26T00:13:21;100013.25;;;13.95;100.00
30598;BME280;17365;48.878;8.334;2022-10-26T00:15:47;100015.91;;;13.89;100.00
30598;BME280;17365;48.878;8.334;2022-10-26T00:18:12;100016.81;;;13.88;100.00
30598;BME280;17365;48.878;8.334;2022-10-26T00:20:37;100016.78;;;13.89;100.00
30598;BME280;17365;48.878;8.334;2022-10-26T00:23:03;100018.38;;;13.99;100.00
30598;BME280;17365;48.878;8.334;2022-10-26T00:25:28;100015.75;;;14.01;100.00
30598;BME280;17365;48.878;8.334;2022-10-26T00:27:53;100007.03;;;14.02;100.00
30598;BME280;17365;48.878;8.334;2022-10-26T00:30:19;100015.69;;;14.06;100.00
30598;BME280;17365;48.878;8.334;2022-10-26T00:32:44;100009.59;;;14.07;100.00
30598;BME280;17365;48.878;8.334;2022-10-26T00:35:09;100008.75;;;14.03;100.00
30598;BME280;17365;48.878;8.334;2022-10-26T00:37:35;100012.22;;;14.07;100.00
30598;BME280;17365;48.878;8.334;2022-10-26T00:40:00;100011.38;;;14.05;100.00
30598;BME280;17365;48.878;8.334;2022-10-26T00:42:25;100004.56;;;13.91;100.00
30598;BME280;17365;48.878;8.334;2022-10-26T00:44:59;100002.00;;;13.88;100.00
30598;BME280;17365;48.878;8.334;2022-10-26T00:47:46;100004.50;;;13.97;100.00
30598;BME280;17365;48.878;8.334;2022-10-26T00:50:34;99995.75;;;14.02;100.00
30598;BME280;17365;48.878;8.334;2022-10-26T00:53:02;99995.63;;;14.11;100.00
30598;BME280;17365;48.878;8.334;2022-10-26T00:55:34;99990.50;;;14.05;100.00
30598;BME280;17365;48.878;8.334;2022-10-26T00:58:05;99985.28;;;14.05;100.00
30598;BME280;17365;48.878;8.334;2022-10-26T01:00:31;99988.75;;;14.04;100.00
30598;BME280;17365;48.878;8.334;2022-10-26T01:02:59;99985.31;;;14.02;100.00
30598;BME280;17365;48.878;8.334;2022-10-26T01:05:26;99988.16;;;13.85;100.00
30598;BME280;17365;48.878;8.334;2022-10-26T01:07:52;99978.38;;;14.01;100.00
30598;BME280;17365;48.878;8.334;2022-10-26T01:10:18;99987.00;;;14.06;100.00
30598;BME280;17365;48.878;8.334;2022-10-26T01:12:44;99983.63;;;13.99;100.00
30598;BME280;17365;48.878;8.334;2022-10-26T01:15:10;99975.75;;;14.01;100.00
30598;BME280;17365;48.878;8.334;2022-10-26T01:26:16;99958.44;;;13.96;100.00
30598;BME280;17365;48.878;8.334;2022-10-26T01:31:28;99965.47;;;13.90;100.00
30598;BME280;17365;48.878;8.334;2022-10-26T01:34:10;99955.81;;;13.98;100.00
30598;BME280;17365;48.878;8.334;2022-10-26T01:36:42;99950.78;;;13.86;100.00
30598;BME280;17365;48.878;8.334;2022-10-26T01:39:16;99944.47;;;14.01;100.00
30598;BME280;17365;48.878;8.334;2022-10-26T01:41:47;99951.38;;;14.03;100.00
30598;BME280;17365;48.878;8.334;2022-10-26T01:44:33;99955.09;;;13.87;100.00
30598;BME280;17365;48.878;8.334;2022-10-26T01:47:03;99961.09;;;13.93;100.00
30598;BME280;17365;48.878;8.334;2022-10-26T01:49:35;99969.97;;;13.82;100.00
30598;BME280;17365;48.878;8.334;2022-10-26T01:52:03;99963.78;;;13.87;100.00
30598;BME280;17365;48.878;8.334;2022-10-26T01:54:29;99969.78;;;13.94;100.00
30598;BME280;17365;48.878;8.334;2022-10-26T01:56:59;99984.66;;;13.87;100.00
30598;BME280;17365;48.878;8.334;2022-10-26T01:59:47;99990.13;;;13.67;100.00
30598;BME280;17365;48.878;8.334;2022-10-26T02:02:37;99983.13;;;13.69;100.00
30598;BME280;17365;48.878;8.334;2022-10-26T02:05:28;100002.50;;;13.52;100.00
30598;BME280;17365;48.878;8.334;2022-10-26T02:08:12;99997.91;;;13.72;100.00
30598;BME280;17365;48.878;8.334;2022-10-26T02:11:06;100008.22;;;13.78;100.00
30598;BME280;17365;48.878;8.334;2022-10-26T02:17:02;100018.09;;;13.55;100.00
30598;BME280;17365;48.878;8.334;2022-10-26T02:19:38;100029.44;;;13.51;100.00
30598;BME280;17365;48.878;8.334;2022-10-26T02:22:19;100034.56;;;13.57;100.00
30598;BME280;17365;48.878;8.334;2022-10-26T02:24:50;100029.31;;;13.58;100.00
30598;BME280;17365;48.878;8.334;2022-10-26T02:27:20;100027.53;;;13.63;100.00
30598;BME280;17365;48.878;8.334;2022-10-26T02:29:48;100020.59;;;13.62;100.00
30598;BME280;17365;48.878;8.334;2022-10-26T02:32:15;100016.28;;;13.61;100.00
30598;BME280;17365;48.878;8.334;2022-10-26T02:34:44;100038.00;;;13.62;100.00
30598;BME280;17365;48.878;8.334;2022-10-26T02:37:14;100036.19;;;13.65;100.00
30598;BME280;17365;48.878;8.334;2022-10-26T02:39:40;100050.94;;;13.68;100.00
30598;BME280;17365;48.878;8.334;2022-10-26T02:42:08;100064.28;;;13.40;100.00
30598;BME280;17365;48.878;8.334;2022-10-26T02:44:41;100069.53;;;13.39;100.00
30598;BME280;17365;48.878;8.334;2022-10-26T02:47:08;100055.53;;;13.45;100.00
30598;BME280;17365;48.878;8.334;2022-10-26T02:49:34;100054.53;;;13.56;100.00
30598;BME280;17365;48.878;8.334;2022-10-26T02:55:09;100048.41;;;13.62;100.00
30598;BME280;17365;48.878;8.334;2022-10-26T02:57:37;100043.25;;;13.57;100.00
30598;BME280;17365;48.878;8.334;2022-10-26T03:00:14;100049.31;;;13.59;100.00
30598;BME280;17365;48.878;8.334;2022-10-26T03:02:44;100044.09;;;13.58;100.00
30598;BME280;17365;48.878;8.334;2022-10-26T03:05:22;100044.97;;;13.60;100.00
30598;BME280;17365;48.878;8.334;2022-10-26T03:07:48;100042.34;;;13.58;100.00
30598;BME280;17365;48.878;8.334;2022-10-26T03:10:14;100038.81;;;13.64;100.00
30598;BME280;17365;48.878;8.334;2022-10-26T03:12:39;100040.59;;;13.62;100.00
30598;BME280;17365;48.878;8.334;2022-10-26T03:15:05;100048.41;;;13.62;100.00
30598;BME280;17365;48.878;8.334;2022-10-26T03:17:31;100048.56;;;13.47;100.00
30598;BME280;17365;48.878;8.334;2022-10-26T03:19:56;100049.41;;;13.52;100.00
30598;BME280;17365;48.878;8.334;2022-10-26T03:22:22;100042.44;;;13.52;100.00
30598;BME280;17365;48.878;8.334;2022-10-26T03:24:47;100043.25;;;13.56;100.00
30598;BME280;17365;48.878;8.334;2022-10-26T03:27:13;100040.69;;;13.54;100.00
30598;BME280;17365;48.878;8.334;2022-10-26T03:29:38;100036.34;;;13.53;100.00
30598;BME280;17365;48.878;8.334;2022-10-26T03:32:04;100029.34;;;13.57;100.00
30598;BME280;17365;48.878;8.334;2022-10-26T03:34:30;100034.66;;;13.49;100.00
30598;BME280;17365;48.878;8.334;2022-10-26T03:36:55;100031.22;;;13.44;100.00
30598;BME280;17365;48.878;8.334;2022-10-26T03:39:20;100027.63;;;13.56;100.00
30598;BME280;17365;48.878;8.334;2022-10-26T03:41:45;100025.41;;;13.18;100.00
30598;BME280;17365;48.878;8.334;2022-10-26T03:44:12;100027.00;;;13.34;100.00
30598;BME280;17365;48.878;8.334;2022-10-26T03:46:37;100029.47;;;13.45;100.00
30598;BME280;17365;48.878;8.334;2022-10-26T03:49:02;100037.28;;;13.46;100.00
30598;BME280;17365;48.878;8.334;2022-10-26T03:51:28;100045.16;;;13.43;100.00
30598;BME280;17365;48.878;8.334;2022-10-26T03:53:53;100039.88;;;13.48;100.00
30598;BME280;17365;48.878;8.334;2022-10-26T03:56:18;100036.50;;;13.39;100.00
30598;BME280;17365;48.878;8.334;2022-10-26T03:58:44;100039.88;;;13.49;100.00
30598;BME280;17365;48.878;8.334;2022-10-26T04:01:09;100048.56;;;13.50;100.00
30598;BME280;17365;48.878;8.334;2022-10-26T04:03:34;100021.97;;;13.19;100.00
30598;BME280;17365;48.878;8.334;2022-10-26T04:06:00;100011.56;;;13.16;100.00
30598;BME280;17365;48.878;8.334;2022-10-26T04:08:26;100009.97;;;12.99;100.00
30598;BME280;17365;48.878;8.334;2022-10-26T04:10:52;99997.56;;;13.27;100.00
30598;BME280;17365;48.878;8.334;2022-10-26T04:13:18;99991.38;;;13.34;100.00
30598;BME280;17365;48.878;8.334;2022-10-26T04:15:43;99992.13;;;13.46;100.00
30598;BME280;17365;48.878;8.334;2022-10-26T04:18:09;99979.00;;;13.55;100.00
30598;BME280;17365;48.878;8.334;2022-10-26T04:20:37;99968.56;;;13.55;100.00
30598;BME280;17365;48.878;8.334;2022-10-26T04:23:05;99953.00;;;13.50;100.00
30598;BME280;17365;48.878;8.334;2022-10-26T04:25:31;99940.88;;;13.46;100.00
30598;BME280;17365;48.878;8.334;2022-10-26T04:27:58;99932.94;;;13.55;100.00
30598;BME280;17365;48.878;8.334;2022-10-26T04:30:24;99939.06;;;13.53;100.00
30598;BME280;17365;48.878;8.334;2022-10-26T04:32:49;99943.34;;;13.57;100.00
30598;BME280;17365;48.878;8.334;2022-10-26T04:35:15;99962.50;;;13.53;100.00
30598;BME280;17365;48.878;8.334;2022-10-26T04:37:40;99982.00;;;13.18;100.00
30598;BME280;17365;48.878;8.334;2022-10-26T04:40:06;100002.06;;;13.07;100.00
30598;BME280;17365;48.878;8.334;2022-10-26T04:42:45;100013.53;;;12.88;100.00
30598;BME280;17365;48.878;8.334;2022-10-26T04:45:13;100002.06;;;13.07;100.00
30598;BME280;17365;48.878;8.334;2022-10-26T04:47:38;100001.06;;;13.22;100.00
30598;BME280;17365;48.878;8.334;2022-10-26T04:50:04;99984.53;;;13.27;100.00
30598;BME280;17365;48.878;8.334;2022-10-26T04:52:30;99985.50;;;13.19;100.00
30598;BME280;17365;48.878;8.334;2022-10-26T04:54:55;99976.09;;;13.01;100.00
30598;BME280;17365;48.878;8.334;2022-10-26T04:57:21;99974.16;;;13.23;100.00
30598;BME280;17365;48.878;8.334;2022-10-26T04:59:46;99976.69;;;13.30;100.00
30598;BME280;17365;48.878;8.334;2022-10-26T05:02:11;99988.88;;;13.27;100.00
30598;BME280;17365;48.878;8.334;2022-10-26T05:04:37;99994.06;;;13.30;100.00
30598;BME280;17365;48.878;8.334;2022-10-26T05:07:02;100006.06;;;13.43;100.00
30598;BME280;17365;48.878;8.334;2022-10-26T05:09:27;100006.06;;;13.43;100.00
30598;BME280;17365;48.878;8.334;2022-10-26T05:11:53;100000.94;;;13.37;100.00
30598;BME280;17365;48.878;8.334;2022-10-26T05:14:18;100006.84;;;13.50;100.00
30598;BME280;17365;48.878;8.334;2022-10-26T05:16:43;100012.94;;;13.50;100.00
30598;BME280;17365;48.878;8.334;2022-10-26T05:19:09;100025.13;;;13.47;100.00
30598;BME280;17365;48.878;8.334;2022-10-26T05:21:34;100026.88;;;13.45;100.00
30598;BME280;17365;48.878;8.334;2022-10-26T05:24:00;100037.53;;;13.23;100.00
30598;BME280;17365;48.878;8.334;2022-10-26T05:26:25;100036.56;;;13.36;100.00
30598;BME280;17365;48.878;8.334;2022-10-26T05:28:51;100049.75;;;13.17;100.00
30598;BME280;17365;48.878;8.334;2022-10-26T05:31:17;100053.16;;;13.23;100.00
30598;BME280;17365;48.878;8.334;2022-10-26T05:33:42;100058.25;;;13.37;100.00
30598;BME280;17365;48.878;8.334;2022-10-26T05:36:08;100059.97;;;13.35;100.00
30598;BME280;17365;48.878;8.334;2022-10-26T05:38:33;100066.06;;;13.38;100.00
30598;BME280;17365;48.878;8.334;2022-10-26T05:40:59;100079.91;;;13.42;100.00
30598;BME280;17365;48.878;8.334;2022-10-26T05:43:25;100079.03;;;13.42;100.00
30598;BME280;17365;48.878;8.334;2022-10-26T05:45:52;100078.16;;;13.43;100.00
30598;BME280;17365;48.878;8.334;2022-10-26T05:48:18;100086.84;;;13.42;100.00
30598;BME280;17365;48.878;8.334;2022-10-26T05:50:44;100091.06;;;13.53;100.00
30598;BME280;17365;48.878;8.334;2022-10-26T05:53:09;100097.97;;;13.57;100.00
30598;BME280;17365;48.878;8.334;2022-10-26T05:55:35;100099.66;;;13.64;100.00
30598;BME280;17365;48.878;8.334;2022-10-26T05:58:00;100097.09;;;13.60;100.00
30598;BME280;17365;48.878;8.334;2022-10-26T06:00:27;100114.50;;;13.55;100.00
30598;BME280;17365;48.878;8.334;2022-10-26T06:05:55;100115.25;;;13.66;100.00
30598;BME280;17365;48.878;8.334;2022-10-26T06:08:23;100123.00;;;13.74;100.00
30598;BME280;17365;48.878;8.334;2022-10-26T06:10:49;100129.31;;;13.51;100.00
30598;BME280;17365;48.878;8.334;2022-10-26T06:13:15;100130.19;;;13.52;100.00
30598;BME280;17365;48.878;8.334;2022-10-26T06:18:54;100143.34;;;13.38;100.00
30598;BME280;17365;48.878;8.334;2022-10-26T06:21:46;100144.03;;;13.57;100.00
30598;BME280;17365;48.878;8.334;2022-10-26T06:27:22;100131.09;;;13.46;100.00
30598;BME280;17365;48.878;8.334;2022-10-26T06:30:03;100120.78;;;13.37;100.00
30598;BME280;17365;48.878;8.334;2022-10-26T06:32:31;100110.47;;;13.26;100.00
30598;BME280;17365;48.878;8.334;2022-10-26T06:37:44;100121.84;;;13.10;100.00
30598;BME280;17365;48.878;8.334;2022-10-26T06:40:12;100111.38;;;13.19;100.00
30598;BME280;17365;48.878;8.334;2022-10-26T06:42:39;100120.03;;;13.23;100.00
30598;BME280;17365;48.878;8.334;2022-10-26T06:45:05;100127.69;;;13.41;100.00
30598;BME280;17365;48.878;8.334;2022-10-26T06:47:54;100135.47;;;13.43;100.00
30598;BME280;17365;48.878;8.334;2022-10-26T06:53:20;100129.19;;;13.65;100.00
30598;BME280;17365;48.878;8.334;2022-10-26T06:55:49;100124.00;;;13.62;100.00
30598;BME280;17365;48.878;8.334;2022-10-26T06:58:17;100125.66;;;13.72;100.00
30598;BME280;17365;48.878;8.334;2022-10-26T07:00:48;100130.13;;;13.59;100.00
30598;BME280;17365;48.878;8.334;2022-10-26T07:03:14;100136.00;;;13.78;100.00
30598;BME280;17365;48.878;8.334;2022-10-26T07:05:39;100146.50;;;13.72;100.00
30598;BME280;17365;48.878;8.334;2022-10-26T07:08:05;100153.53;;;13.64;100.00
30598;BME280;17365;48.878;8.334;2022-10-26T07:10:31;100160.41;;;13.69;100.00
30598;BME280;17365;48.878;8.334;2022-10-26T07:12:56;100164.94;;;13.52;100.00
30598;BME280;17365;48.878;8.334;2022-10-26T07:15:22;100166.63;;;13.55;100.00
30598;BME280;17365;48.878;8.334;2022-10-26T07:17:48;100173.50;;;13.65;100.00
30598;BME280;17365;48.878;8.334;2022-10-26T07:20:15;100175.97;;;13.79;100.00
30598;BME280;17365;48.878;8.334;2022-10-26T07:22:41;100178.53;;;13.83;100.00
30598;BME280;17365;48.878;8.334;2022-10-26T07:25:09;100171.47;;;13.91;100.00
30598;BME280;17365;48.878;8.334;2022-10-26T07:27:36;100179.19;;;14.01;100.00
30598;BME280;17365;48.878;8.334;2022-10-26T07:30:02;100180.13;;;13.96;100.00
30598;BME280;17365;48.878;8.334;2022-10-26T07:32:28;100160.16;;;13.92;100.00
30598;BME280;17365;48.878;8.334;2022-10-26T07:34:54;100166.91;;;14.12;100.00
30598;BME280;17365;48.878;8.334;2022-10-26T07:37:19;100157.28;;;14.18;100.00
30598;BME280;17365;48.878;8.334;2022-10-26T07:39:45;100156.22;;;14.32;100.00
30598;BME280;17365;48.878;8.334;2022-10-26T07:42:10;100154.53;;;14.29;100.00
30598;BME280;17365;48.878;8.334;2022-10-26T07:44:35;100159.72;;;14.31;100.00
30598;BME280;17365;48.878;8.334;2022-10-26T07:47:00;100164.09;;;14.30;100.00
30598;BME280;17365;48.878;8.334;2022-10-26T07:49:26;100169.44;;;14.18;100.00
30598;BME280;17365;48.878;8.334;2022-10-26T07:51:51;100168.56;;;14.19;100.00
30598;BME280;17365;48.878;8.334;2022-10-26T07:54:16;100183.47;;;14.08;100.00
30598;BME280;17365;48.878;8.334;2022-10-26T07:56:42;100191.44;;;13.97;100.00
30598;BME280;17365;48.878;8.334;2022-10-26T07:59:10;100199.84;;;14.20;100.00
30598;BME280;17365;48.878;8.334;2022-10-26T08:01:35;100208.31;;;14.38;100.00
30598;BME280;17365;48.878;8.334;2022-10-26T08:04:01;100210.25;;;14.23;100.00
30598;BME280;17365;48.878;8.334;2022-10-26T08:06:26;100214.25;;;14.55;100.00
30598;BME280;17365;48.878;8.334;2022-10-26T08:08:51;100218.63;;;14.53;100.00
30598;BME280;17365;48.878;8.334;2022-10-26T08:11:17;100223.06;;;14.46;100.00
30598;BME280;17365;48.878;8.334;2022-10-26T08:13:42;100227.16;;;14.66;100.00
30598;BME280;17365;48.878;8.334;2022-10-26T08:16:08;100225.25;;;14.78;100.00
30598;BME280;17365;48.878;8.334;2022-10-26T08:18:34;100223.22;;;15.00;100.00
30598;BME280;17365;48.878;8.334;2022-10-26T08:21:06;100232.63;;;15.12;100.00
30598;BME280;17365;48.878;8.334;2022-10-26T08:23:33;100232.69;;;15.07;100.00
30598;BME280;17365;48.878;8.334;2022-10-26T08:25:59;100239.50;;;15.16;100.00
30598;BME280;17365;48.878;8.334;2022-10-26T08:28:26;100237.56;;;15.30;100.00
30598;BME280;17365;48.878;8.334;2022-10-26T08:30:51;100234.78;;;15.39;100.00
30598;BME280;17365;48.878;8.334;2022-10-26T08:33:17;100237.22;;;15.53;100.00
30598;BME280;17365;48.878;8.334;2022-10-26T08:35:42;100240.84;;;15.43;100.00
30598;BME280;17365;48.878;8.334;2022-10-26T08:38:08;100224.91;;;15.60;100.00
30598;BME280;17365;48.878;8.334;2022-10-26T08:40:37;100235.75;;;15.89;100.00
30598;BME280;17365;48.878;8.334;2022-10-26T08:43:25;100235.69;;;15.92;100.00
30598;BME280;17365;48.878;8.334;2022-10-26T08:46:03;100235.03;;;16.26;100.00
30598;BME280;17365;48.878;8.334;2022-10-26T08:48:33;100238.72;;;16.16;100.00
30598;BME280;17365;48.878;8.334;2022-10-26T08:51:03;100252.00;;;16.05;100.00
30598;BME280;17365;48.878;8.334;2022-10-26T08:56:22;100263.09;;;16.19;100.00
30598;BME280;17365;48.878;8.334;2022-10-26T08:58:56;100267.72;;;16.05;100.00
30598;BME280;17365;48.878;8.334;2022-10-26T09:01:23;100276.50;;;16.02;100.00
30598;BME280;17365;48.878;8.334;2022-10-26T09:03:49;100278.47;;;15.90;100.00
30598;BME280;17365;48.878;8.334;2022-10-26T09:06:33;100276.06;;;16.25;100.00
30598;BME280;17365;48.878;8.334;2022-10-26T09:12:15;100272.59;;;16.25;100.00
30598;BME280;17365;48.878;8.334;2022-10-26T09:24:00;100278.31;;;16.90;100.00
30598;BME280;17365;48.878;8.334;2022-10-26T09:27:01;100277.03;;;16.66;100.00
30598;BME280;17365;48.878;8.334;2022-10-26T09:29:29;100286.81;;;16.56;100.00
30598;BME280;17365;48.878;8.334;2022-10-26T09:31:59;100288.47;;;16.60;100.00
30598;BME280;17365;48.878;8.334;2022-10-26T09:34:35;100291.06;;;16.62;100.00
30598;BME280;17365;48.878;8.334;2022-10-26T09:37:12;100291.03;;;16.64;100.00
30598;BME280;17365;48.878;8.334;2022-10-26T09:39:46;100289.53;;;16.95;100.00
30598;BME280;17365;48.878;8.334;2022-10-26T09:42:21;100303.47;;;16.97;100.00
30598;BME280;17365;48.878;8.334;2022-10-26T09:44:59;100301.44;;;17.10;100.00
30598;BME280;17365;48.878;8.334;2022-10-26T09:47:37;100309.44;;;17.04;100.00
30598;BME280;17365;48.878;8.334;2022-10-26T09:50:16;100320.72;;;17.07;100.00
30598;BME280;17365;48.878;8.334;2022-10-26T09:52:42;100318.88;;;17.12;100.00
30598;BME280;17365;48.878;8.334;2022-10-26T09:55:11;100315.25;;;17.18;100.00
30598;BME280;17365;48.878;8.334;2022-10-26T09:57:40;100326.50;;;17.23;100.00
30598;BME280;17365;48.878;8.334;2022-10-26T10:00:11;100327.88;;;17.39;100.00
30598;BME280;17365;48.878;8.334;2022-10-26T10:02:39;100326.78;;;17.50;100.00
30598;BME280;17365;48.878;8.334;2022-10-26T10:05:34;100331.59;;;17.66;100.00
30598;BME280;17365;48.878;8.334;2022-10-26T10:13:20;100342.03;;;18.07;99.48
30598;BME280;17365;48.878;8.334;2022-10-26T10:15:51;100343.69;;;18.11;96.71
30598;BME280;17365;48.878;8.334;2022-10-26T10:18:19;100334.63;;;18.22;95.09
30598;BME280;17365;48.878;8.334;2022-10-26T10:20:54;100344.66;;;18.41;95.44
30598;BME280;17365;48.878;8.334;2022-10-26T10:23:47;100350.44;;;18.53;93.73
30598;BME280;17365;48.878;8.334;2022-10-26T10:26:13;100348.31;;;18.68;92.52
30598;BME280;17365;48.878;8.334;2022-10-26T10:28:41;100352.47;;;18.76;92.24
30598;BME280;17365;48.878;8.334;2022-10-26T10:31:28;100359.25;;;18.85;90.86
30598;BME280;17365;48.878;8.334;2022-10-26T10:33:53;100365.47;;;18.82;89.11
30598;BME280;17365;48.878;8.334;2022-10-26T10:36:21;100358.44;;;18.83;86.33
30598;BME280;17365;48.878;8.334;2022-10-26T10:38:50;100361.47;;;18.99;87.33
30598;BME280;17365;48.878;8.334;2022-10-26T10:43:45;100372.84;;;18.99;85.13
30598;BME280;17365;48.878;8.334;2022-10-26T10:46:17;100377.25;;;18.99;81.84
30598;BME280;17365;48.878;8.334;2022-10-26T10:48:49;100369.88;;;19.11;83.84
30598;BME280;17365;48.878;8.334;2022-10-26T10:51:20;100378.56;;;19.13;83.78
30598;BME280;17365;48.878;8.334;2022-10-26T10:56:26;100375.94;;;19.13;81.07
30598;BME280;17365;48.878;8.334;2022-10-26T11:01:39;100373.84;;;19.25;81.86
30598;BME280;17365;48.878;8.334;2022-10-26T11:04:24;100379.09;;;19.26;79.86
30598;BME280;17365;48.878;8.334;2022-10-26T11:06:59;100383.94;;;19.40;80.78
30598;BME280;17365;48.878;8.334;2022-10-26T11:09:28;100382.22;;;19.39;80.25
30598;BME280;17365;48.878;8.334;2022-10-26T11:12:08;100393.28;;;19.50;78.29
30598;BME280;17365;48.878;8.334;2022-10-26T11:14:59;100381.91;;;19.49;77.89
30598;BME280;17365;48.878;8.334;2022-10-26T11:17:31;100384.59;;;19.76;78.88
30598;BME280;17365;48.878;8.334;2022-10-26T11:20:07;100384.50;;;19.79;78.13
30598;BME280;17365;48.878;8.334;2022-10-26T11:22:40;100383.53;;;19.82;76.30
30598;BME280;17365;48.878;8.334;2022-10-26T11:25:19;100386.31;;;20.05;75.70
30598;BME280;17365;48.878;8.334;2022-10-26T11:27:56;100384.78;;;19.98;76.32
30598;BME280;17365;48.878;8.334;2022-10-26T11:30:24;100388.75;;;20.11;73.66
30598;BME280;17365;48.878;8.334;2022-10-26T11:32:53;100383.56;;;20.34;74.02
30598;BME280;17365;48.878;8.334;2022-10-26T11:35:26;100381.50;;;20.18;72.95
30598;BME280;17365;48.878;8.334;2022-10-26T11:38:23;100387.53;;;19.95;73.16
30598;BME280;17365;48.878;8.334;2022-10-26T11:40:56;100385.03;;;19.90;73.89
30598;BME280;17365;48.878;8.334;2022-10-26T11:43:32;100390.09;;;19.68;74.64
30598;BME280;17365;48.878;8.334;2022-10-26T11:46:08;100384.94;;;19.65;74.28
30598;BME280;17365;48.878;8.334;2022-10-26T11:48:45;100378.34;;;19.51;74.10
30598;BME280;17365;48.878;8.334;2022-10-26T11:51:19;100383.75;;;19.46;74.07
30598;BME280;17365;48.878;8.334;2022-10-26T11:53:46;100383.50;;;19.55;75.26
30598;BME280;17365;48.878;8.334;2022-10-26T11:56:26;100379.75;;;19.33;73.50
30598;BME280;17365;48.878;8.334;2022-10-26T11:58:55;100383.56;;;19.52;74.77
30598;BME280;17365;48.878;8.334;2022-10-26T12:01:21;100387.13;;;19.79;74.08
30598;BME280;17365;48.878;8.334;2022-10-26T12:03:49;100390.44;;;19.86;73.78
30598;BME280;17365;48.878;8.334;2022-10-26T12:06:19;100385.28;;;19.83;72.20
30598;BME280;17365;48.878;8.334;2022-10-26T12:08:52;100382.03;;;20.01;72.25
30598;BME280;17365;48.878;8.334;2022-10-26T12:19:51;100380.38;;;20.25;71.47
30598;BME280;17365;48.878;8.334;2022-10-26T12:22:21;100387.56;;;20.20;70.28
30598;BME280;17365;48.878;8.334;2022-10-26T12:25:20;100396.28;;;20.22;71.03
30598;BME280;17365;48.878;8.334;2022-10-26T12:48:43;100397.44;;;20.40;68.22
30598;BME280;17365;48.878;8.334;2022-10-26T12:54:39;100405.97;;;20.48;68.51
30598;BME280;17365;48.878;8.334;2022-10-26T13:00:12;100412.16;;;20.47;69.06
30598;BME280;17365;48.878;8.334;2022-10-26T13:08:01;100405.78;;;20.54;68.60
30598;BME280;17365;48.878;8.334;2022-10-26T13:10:27;100401.09;;;20.62;69.17
30598;BME280;17365;48.878;8.334;2022-10-26T13:12:57;100407.19;;;20.64;69.05
30598;BME280;17365;48.878;8.334;2022-10-26T13:15:52;100408.47;;;20.52;68.09
30598;BME280;17365;48.878;8.334;2022-10-26T13:18:20;100403.41;;;20.71;68.64
30598;BME280;17365;48.878;8.334;2022-10-26T13:21:13;100401.72;;;20.69;68.08
30598;BME280;17365;48.878;8.334;2022-10-26T13:24:00;100413.19;;;20.68;67.91
30598;BME280;17365;48.878;8.334;2022-10-26T13:26:28;100400.72;;;20.73;67.68
30598;BME280;17365;48.878;8.334;2022-10-26T13:28:56;100406.88;;;20.72;67.45
30598;BME280;17365;48.878;8.334;2022-10-26T13:34:01;100412.94;;;20.75;67.43
30598;BME280;17365;48.878;8.334;2022-10-26T13:36:35;100407.75;;;20.72;67.56
30598;BME280;17365;48.878;8.334;2022-10-26T13:39:14;100412.06;;;20.75;67.36
30598;BME280;17365;48.878;8.334;2022-10-26T13:41:44;100412.28;;;20.69;67.18
30598;BME280;17365;48.878;8.334;2022-10-26T13:44:21;100411.38;;;20.70;67.12
30598;BME280;17365;48.878;8.334;2022-10-26T13:46:51;100414.00;;;20.70;67.14
30598;BME280;17365;48.878;8.334;2022-10-26T13:49:22;100413.25;;;20.66;67.61
30598;BME280;17365;48.878;8.334;2022-10-26T13:51:51;100414.97;;;20.67;67.23
30598;BME280;17365;48.878;8.334;2022-10-26T13:54:26;100421.81;;;20.73;67.76
30598;BME280;17365;48.878;8.334;2022-10-26T13:57:00;100416.56;;;20.71;68.06
30598;BME280;17365;48.878;8.334;2022-10-26T13:59:26;100429.81;;;20.70;67.32
30598;BME280;17365;48.878;8.334;2022-10-26T14:02:24;100435.16;;;20.68;67.56
30598;BME280;17365;48.878;8.334;2022-10-26T14:04:59;100428.84;;;20.72;68.39
30598;BME280;17365;48.878;8.334;2022-10-26T14:07:33;100427.91;;;20.75;68.88
30598;BME280;17365;48.878;8.334;2022-10-26T14:10:01;100433.16;;;20.75;69.16
30598;BME280;17365;48.878;8.334;2022-10-26T14:12:26;100439.50;;;20.69;69.29
30598;BME280;17365;48.878;8.334;2022-10-26T14:15:15;100437.91;;;20.65;69.11
30598;BME280;17365;48.878;8.334;2022-10-26T14:17:40;100440.28;;;20.73;68.96
30598;BME280;17365;48.878;8.334;2022-10-26T14:20:06;100435.03;;;20.71;69.40
30598;BME280;17365;48.878;8.334;2022-10-26T14:22:42;100443.06;;;20.68;69.50
30598;BME280;17365;48.878;8.334;2022-10-26T14:25:36;100446.72;;;20.64;69.65
30598;BME280;17365;48.878;8.334;2022-10-26T14:28:02;100450.97;;;20.68;69.94
30598;BME280;17365;48.878;8.334;2022-10-26T14:30:31;100451.94;;;20.66;70.15
30598;BME280;17365;48.878;8.334;2022-10-26T14:32:57;100447.53;;;20.66;70.35
30598;BME280;17365;48.878;8.334;2022-10-26T14:35:28;100444.16;;;20.62;70.73
30598;BME280;17365;48.878;8.334;2022-10-26T14:37:59;100443.47;;;20.56;70.97
30598;BME280;17365;48.878;8.334;2022-10-26T14:40:29;100442.44;;;20.60;71.46
30598;BME280;17365;48.878;8.334;2022-10-26T14:42:59;100442.50;;;20.58;71.12
30598;BME280;17365;48.878;8.334;2022-10-26T14:45:35;100453.03;;;20.58;71.61